createdAt,value
2017-10-15T00:00:03.690Z,1028.29
2017-10-15T00:01:05.575Z,1028.28
2017-10-15T00:02:07.462Z,1028.28
2017-10-15T00:03:21.621Z,1028.27
2017-10-15T00:04:23.506Z,1028.24
2017-10-15T00:05:25.392Z,1028.25
2017-10-15T00:06:27.276Z,1028.24
2017-10-15T00:07:29.099Z,1028.30
2017-10-15T00:08:30.920Z,1028.30
2017-10-15T00:09:32.804Z,1028.28
2017-10-15T00:10:34.689Z,1028.31
2017-10-15T00:11:36.578Z,1028.27
2017-10-15T00:12:50.729Z,1028.27
2017-10-15T00:13:52.616Z,1028.30
2017-10-15T00:14:54.504Z,1028.34
2017-10-15T00:15:56.385Z,1028.29
2017-10-15T00:16:58.207Z,1028.31
2017-10-15T00:18:00.027Z,1028.30
2017-10-15T00:19:01.874Z,1028.30
2017-10-15T00:20:03.694Z,1028.30
2017-10-15T00:21:05.516Z,1028.28
2017-10-15T00:22:19.710Z,1028.26
2017-10-15T00:23:21.595Z,1028.24
2017-10-15T00:24:23.481Z,1028.16
2017-10-15T00:25:25.364Z,1028.18
2017-10-15T00:26:27.186Z,1028.17
2017-10-15T00:27:29.013Z,1028.18
2017-10-15T00:28:30.897Z,1028.18
2017-10-15T00:29:32.793Z,1028.16
2017-10-15T00:30:34.665Z,1028.16
2017-10-15T00:31:48.833Z,1028.13
2017-10-15T00:32:50.715Z,1028.15
2017-10-15T00:33:52.610Z,1028.12
2017-10-15T00:34:54.493Z,1028.16
2017-10-15T00:35:56.315Z,1028.16
2017-10-15T00:36:58.133Z,1028.20
2017-10-15T00:38:00.017Z,1028.23
2017-10-15T00:39:01.901Z,1028.22
2017-10-15T00:40:03.787Z,1028.20
2017-10-15T00:41:17.940Z,1028.20
2017-10-15T00:42:19.836Z,1028.24
2017-10-15T00:43:21.718Z,1028.25
2017-10-15T00:44:23.603Z,1028.27
2017-10-15T00:45:25.424Z,1028.24
2017-10-15T00:46:27.258Z,1028.23
2017-10-15T00:47:29.138Z,1028.25
2017-10-15T00:48:31.021Z,1028.23
2017-10-15T00:49:32.918Z,1028.20
2017-10-15T00:50:47.078Z,1028.18
2017-10-15T00:51:48.958Z,1028.20
2017-10-15T00:52:50.843Z,1028.18
2017-10-15T00:53:52.729Z,1028.16
2017-10-15T00:54:54.553Z,1028.19
2017-10-15T00:55:56.370Z,1028.17
2017-10-15T00:56:58.262Z,1028.19
2017-10-15T00:58:00.148Z,1028.15
2017-10-15T00:59:02.035Z,1028.15
2017-10-15T01:00:16.192Z,1028.17
2017-10-15T01:01:18.076Z,1028.15
2017-10-15T01:02:19.969Z,1028.13
2017-10-15T01:03:21.853Z,1028.13
2017-10-15T01:04:23.673Z,1028.13
2017-10-15T01:05:25.503Z,1028.15
2017-10-15T01:06:27.385Z,1028.12
2017-10-15T01:07:29.270Z,1028.17
2017-10-15T01:08:31.168Z,1028.13
2017-10-15T01:09:45.322Z,1028.12
2017-10-15T01:10:47.219Z,1028.11
2017-10-15T01:11:49.102Z,1028.08
2017-10-15T01:12:50.985Z,1028.09
2017-10-15T01:13:52.806Z,1028.02
2017-10-15T01:14:54.624Z,1028.07
2017-10-15T01:15:56.507Z,1028.03
2017-10-15T01:16:58.394Z,1028.05
2017-10-15T01:18:00.280Z,1028.05
2017-10-15T01:19:14.434Z,1028.00
2017-10-15T01:20:16.317Z,1028.05
2017-10-15T01:21:18.212Z,1028.07
2017-10-15T01:22:20.097Z,1028.02
2017-10-15T01:23:21.918Z,1028.02
2017-10-15T01:24:23.737Z,1028.03
2017-10-15T01:25:25.621Z,1028.07
2017-10-15T01:26:27.505Z,1028.04
2017-10-15T01:27:29.392Z,1028.04
2017-10-15T01:28:43.549Z,1028.02
2017-10-15T01:29:45.434Z,1027.97
2017-10-15T01:30:47.328Z,1027.97
2017-10-15T01:31:49.209Z,1027.94
2017-10-15T01:32:51.029Z,1027.91
2017-10-15T01:33:52.845Z,1027.94
2017-10-15T01:34:54.690Z,1027.90
2017-10-15T01:35:56.573Z,1027.91
2017-10-15T01:36:58.458Z,1027.84
2017-10-15T01:38:12.662Z,1027.88
2017-10-15T01:39:14.547Z,1027.92
2017-10-15T01:40:16.430Z,1027.89
2017-10-15T01:41:18.312Z,1027.93
2017-10-15T01:42:20.132Z,1027.95
2017-10-15T01:43:21.949Z,1027.97
2017-10-15T01:44:23.834Z,1027.96
2017-10-15T01:45:25.718Z,1027.97
2017-10-15T01:46:27.602Z,1027.98
2017-10-15T01:47:41.756Z,1027.97
2017-10-15T01:48:43.639Z,1027.94
2017-10-15T01:49:45.525Z,1027.96
2017-10-15T01:50:47.406Z,1027.97
2017-10-15T01:51:49.226Z,1027.97
2017-10-15T01:52:51.044Z,1027.93
2017-10-15T01:53:52.927Z,1027.95
2017-10-15T01:54:54.810Z,1027.92
2017-10-15T01:55:56.694Z,1027.97
2017-10-15T01:57:10.847Z,1027.96
2017-10-15T01:58:12.731Z,1027.95
2017-10-15T01:59:14.619Z,1027.99
2017-10-15T02:00:16.499Z,1027.97
2017-10-15T02:01:18.318Z,1028.00
2017-10-15T02:02:20.136Z,1028.03
2017-10-15T02:03:22.031Z,1028.04
2017-10-15T02:04:23.913Z,1028.02
2017-10-15T02:05:25.795Z,1028.03
2017-10-15T02:06:39.996Z,1028.00
2017-10-15T02:07:41.881Z,1027.99
2017-10-15T02:08:43.767Z,1028.00
2017-10-15T02:09:45.644Z,1028.02
2017-10-15T02:10:47.472Z,1028.04
2017-10-15T02:11:49.286Z,1028.03
2017-10-15T02:12:51.170Z,1028.01
2017-10-15T02:13:53.053Z,1028.03
2017-10-15T02:14:54.938Z,1028.05
2017-10-15T02:16:09.088Z,1027.99
2017-10-15T02:17:10.971Z,1027.94
2017-10-15T02:18:12.856Z,1027.96
2017-10-15T02:19:14.734Z,1028.02
2017-10-15T02:20:16.553Z,1028.06
2017-10-15T02:21:18.400Z,1028.03
2017-10-15T02:22:20.210Z,1028.02
2017-10-15T02:23:22.108Z,1028.02
2017-10-15T02:24:23.990Z,1028.06
2017-10-15T02:25:38.143Z,1028.02
2017-10-15T02:26:40.025Z,1028.01
2017-10-15T02:27:41.913Z,1027.98
2017-10-15T02:28:43.792Z,1028.00
2017-10-15T02:29:45.619Z,1028.03
2017-10-15T02:30:47.438Z,1028.01
2017-10-15T02:31:49.338Z,1028.00
2017-10-15T02:32:51.233Z,1028.02
2017-10-15T02:33:53.105Z,1027.97
2017-10-15T02:35:07.258Z,1027.98
2017-10-15T02:36:09.142Z,1027.94
2017-10-15T02:37:11.027Z,1027.92
2017-10-15T02:38:12.908Z,1027.95
2017-10-15T02:39:14.735Z,1027.94
2017-10-15T02:40:16.552Z,1027.92
2017-10-15T02:41:18.435Z,1027.96
2017-10-15T02:42:20.335Z,1027.96
2017-10-15T02:43:22.217Z,1027.98
2017-10-15T02:44:36.370Z,1027.98
2017-10-15T02:45:38.252Z,1028.01
2017-10-15T02:46:40.141Z,1027.99
2017-10-15T02:47:42.020Z,1028.00
2017-10-15T02:48:43.845Z,1028.04
2017-10-15T02:49:45.674Z,1028.05
2017-10-15T02:50:47.554Z,1028.04
2017-10-15T02:51:49.438Z,1028.04
2017-10-15T02:52:51.320Z,1028.02
2017-10-15T02:54:05.472Z,1028.05
2017-10-15T02:55:07.354Z,1028.05
2017-10-15T02:56:09.237Z,1028.02
2017-10-15T02:57:11.121Z,1027.99
2017-10-15T02:58:12.948Z,1028.06
2017-10-15T02:59:14.767Z,1028.02
2017-10-15T03:00:16.652Z,1028.07
2017-10-15T03:01:18.533Z,1028.10
2017-10-15T03:02:20.425Z,1028.08
2017-10-15T03:03:34.579Z,1028.04
2017-10-15T03:04:36.460Z,1028.04
2017-10-15T03:05:38.347Z,1028.06
2017-10-15T03:06:40.226Z,1027.99
2017-10-15T03:07:42.043Z,1028.01
2017-10-15T03:08:43.874Z,1028.02
2017-10-15T03:09:45.754Z,1027.99
2017-10-15T03:10:47.639Z,1027.97
2017-10-15T03:11:49.520Z,1027.99
2017-10-15T03:13:03.671Z,1028.02
2017-10-15T03:14:05.549Z,1027.96
2017-10-15T03:15:07.445Z,1027.97
2017-10-15T03:16:09.319Z,1027.96
2017-10-15T03:17:11.146Z,1027.97
2017-10-15T03:18:12.963Z,1028.00
2017-10-15T03:19:14.844Z,1027.93
2017-10-15T03:20:16.725Z,1027.94
2017-10-15T03:21:18.622Z,1027.90
2017-10-15T03:22:32.770Z,1027.89
2017-10-15T03:23:34.652Z,1027.88
2017-10-15T03:24:36.534Z,1027.87
2017-10-15T03:25:38.411Z,1027.90
2017-10-15T03:26:40.227Z,1027.86
2017-10-15T03:27:42.046Z,1027.87
2017-10-15T03:28:43.926Z,1027.83
2017-10-15T03:29:45.813Z,1027.84
2017-10-15T03:30:47.693Z,1027.79
2017-10-15T03:32:01.848Z,1027.77
2017-10-15T03:33:03.730Z,1027.79
2017-10-15T03:34:05.613Z,1027.74
2017-10-15T03:35:07.492Z,1027.76
2017-10-15T03:36:09.307Z,1027.74
2017-10-15T03:37:11.129Z,1027.71
2017-10-15T03:38:13.004Z,1027.74
2017-10-15T03:39:14.887Z,1027.69
2017-10-15T03:40:16.765Z,1027.70
2017-10-15T03:41:30.969Z,1027.69
2017-10-15T03:42:32.852Z,1027.66
2017-10-15T03:43:34.754Z,1027.66
2017-10-15T03:44:36.636Z,1027.67
2017-10-15T03:45:38.454Z,1027.65
2017-10-15T03:46:40.272Z,1027.68
2017-10-15T03:47:42.152Z,1027.69
2017-10-15T03:48:44.036Z,1027.71
2017-10-15T03:49:45.917Z,1027.74
2017-10-15T03:51:00.069Z,1027.72
2017-10-15T03:52:01.952Z,1027.80
2017-10-15T03:53:03.840Z,1027.79
2017-10-15T03:54:05.718Z,1027.86
2017-10-15T03:55:07.537Z,1027.79
2017-10-15T03:56:09.353Z,1027.82
2017-10-15T03:57:11.236Z,1027.82
2017-10-15T03:58:13.121Z,1027.79
2017-10-15T03:59:15.008Z,1027.82
2017-10-15T04:00:29.156Z,1027.83
2017-10-15T04:01:31.037Z,1027.84
2017-10-15T04:02:32.925Z,1027.87
2017-10-15T04:03:34.806Z,1027.92
2017-10-15T04:04:36.622Z,1027.89
2017-10-15T04:05:38.449Z,1027.89
2017-10-15T04:06:40.333Z,1027.88
2017-10-15T04:07:42.216Z,1027.89
2017-10-15T04:08:44.101Z,1027.93
2017-10-15T04:09:58.252Z,1027.86
2017-10-15T04:11:00.134Z,1027.92
2017-10-15T04:12:02.017Z,1027.92
2017-10-15T04:13:03.909Z,1027.93
2017-10-15T04:14:05.725Z,1027.99
2017-10-15T04:15:07.552Z,1027.99
2017-10-15T04:16:09.431Z,1028.03
2017-10-15T04:17:11.321Z,1028.03
2017-10-15T04:18:13.201Z,1028.05
2017-10-15T04:19:27.354Z,1028.08
2017-10-15T04:20:29.253Z,1028.06
2017-10-15T04:21:31.121Z,1028.07
2017-10-15T04:22:33.002Z,1028.03
2017-10-15T04:23:34.820Z,1028.09
2017-10-15T04:24:36.635Z,1028.00
2017-10-15T04:25:38.518Z,1028.02
2017-10-15T04:26:40.404Z,1028.01
2017-10-15T04:27:42.284Z,1028.01
2017-10-15T04:28:56.435Z,1027.97
2017-10-15T04:29:58.319Z,1027.99
2017-10-15T04:31:00.204Z,1027.94
2017-10-15T04:32:02.102Z,1027.96
2017-10-15T04:33:03.933Z,1027.98
2017-10-15T04:34:05.752Z,1027.99
2017-10-15T04:35:07.627Z,1027.96
2017-10-15T04:36:09.522Z,1027.97
2017-10-15T04:37:11.402Z,1027.99
2017-10-15T04:38:25.558Z,1027.99
2017-10-15T04:39:27.440Z,1028.00
2017-10-15T04:40:29.330Z,1028.01
2017-10-15T04:41:31.211Z,1028.03
2017-10-15T04:42:33.029Z,1028.04
2017-10-15T04:43:34.845Z,1028.11
2017-10-15T04:44:36.728Z,1028.12
2017-10-15T04:45:38.628Z,1028.11
2017-10-15T04:46:40.504Z,1028.05
2017-10-15T04:47:54.658Z,1028.10
2017-10-15T04:48:56.541Z,1028.07
2017-10-15T04:49:58.425Z,1028.11
2017-10-15T04:51:00.309Z,1028.09
2017-10-15T04:52:02.125Z,1028.13
2017-10-15T04:53:03.943Z,1028.10
2017-10-15T04:54:05.829Z,1028.12
2017-10-15T04:55:07.714Z,1028.12
2017-10-15T04:56:09.605Z,1028.10
2017-10-15T04:57:23.759Z,1028.12
2017-10-15T04:58:25.642Z,1028.11
2017-10-15T04:59:27.526Z,1028.12
2017-10-15T05:00:29.410Z,1028.17
2017-10-15T05:01:31.227Z,1028.17
2017-10-15T05:02:33.049Z,1028.19
2017-10-15T05:03:34.935Z,1028.17
2017-10-15T05:04:36.819Z,1028.21
2017-10-15T05:05:38.703Z,1028.22
2017-10-15T05:06:52.906Z,1028.25
2017-10-15T05:07:54.791Z,1028.29
2017-10-15T05:08:56.674Z,1028.25
2017-10-15T05:09:58.557Z,1028.27
2017-10-15T05:11:00.371Z,1028.29
2017-10-15T05:12:02.197Z,1028.29
2017-10-15T05:13:04.089Z,1028.28
2017-10-15T05:14:05.975Z,1028.31
2017-10-15T05:15:07.858Z,1028.34
2017-10-15T05:16:22.063Z,1028.40
2017-10-15T05:17:23.947Z,1028.45
2017-10-15T05:18:25.834Z,1028.46
2017-10-15T05:19:27.716Z,1028.48
2017-10-15T05:20:29.534Z,1028.50
2017-10-15T05:21:31.365Z,1028.51
2017-10-15T05:22:33.245Z,1028.53
2017-10-15T05:23:35.135Z,1028.52
2017-10-15T05:24:37.019Z,1028.53
2017-10-15T05:25:51.176Z,1028.54
2017-10-15T05:26:53.063Z,1028.52
2017-10-15T05:27:54.947Z,1028.55
2017-10-15T05:28:56.837Z,1028.53
2017-10-15T05:29:58.649Z,1028.54
2017-10-15T05:31:00.471Z,1028.53
2017-10-15T05:32:02.356Z,1028.51
2017-10-15T05:33:04.243Z,1028.50
2017-10-15T05:34:06.125Z,1028.54
2017-10-15T05:35:20.279Z,1028.52
2017-10-15T05:36:22.165Z,1028.55
2017-10-15T05:37:24.048Z,1028.53
2017-10-15T05:38:25.930Z,1028.60
2017-10-15T05:39:27.751Z,1028.60
2017-10-15T05:40:29.570Z,1028.58
2017-10-15T05:41:31.454Z,1028.58
2017-10-15T05:42:33.337Z,1028.57
2017-10-15T05:43:35.223Z,1028.57
2017-10-15T05:44:49.382Z,1028.60
2017-10-15T05:45:51.264Z,1028.59
2017-10-15T05:46:53.149Z,1028.60
2017-10-15T05:47:55.027Z,1028.58
2017-10-15T05:48:56.858Z,1028.61
2017-10-15T05:49:58.702Z,1028.58
2017-10-15T05:51:00.576Z,1028.58
2017-10-15T05:52:02.463Z,1028.56
2017-10-15T05:53:04.346Z,1028.53
2017-10-15T05:54:18.505Z,1028.54
2017-10-15T05:55:20.391Z,1028.53
2017-10-15T05:56:22.275Z,1028.58
2017-10-15T05:57:24.158Z,1028.54
2017-10-15T05:58:25.978Z,1028.54
2017-10-15T05:59:27.799Z,1028.57
2017-10-15T06:00:29.682Z,1028.56
2017-10-15T06:01:31.569Z,1028.65
2017-10-15T06:02:33.450Z,1028.57
2017-10-15T06:03:47.656Z,1028.61
2017-10-15T06:04:49.541Z,1028.61
2017-10-15T06:05:51.432Z,1028.63
2017-10-15T06:06:53.313Z,1028.63
2017-10-15T06:07:55.135Z,1028.66
2017-10-15T06:08:56.956Z,1028.69
2017-10-15T06:09:58.841Z,1028.67
2017-10-15T06:11:00.743Z,1028.62
2017-10-15T06:12:02.613Z,1028.62
2017-10-15T06:13:16.818Z,1028.65
2017-10-15T06:14:18.711Z,1028.62
2017-10-15T06:15:20.598Z,1028.63
2017-10-15T06:16:22.485Z,1028.63
2017-10-15T06:17:24.307Z,1028.65
2017-10-15T06:18:26.132Z,1028.68
2017-10-15T06:19:28.017Z,1028.71
2017-10-15T06:20:29.909Z,1028.74
2017-10-15T06:21:31.792Z,1028.82
2017-10-15T06:22:46.001Z,1028.79
2017-10-15T06:23:47.887Z,1028.84
2017-10-15T06:24:49.774Z,1028.89
2017-10-15T06:25:51.662Z,1028.84
2017-10-15T06:26:53.485Z,1028.88
2017-10-15T06:27:55.311Z,1028.90
2017-10-15T06:28:57.194Z,1028.90
2017-10-15T06:29:59.085Z,1028.93
2017-10-15T06:31:00.971Z,1028.94
2017-10-15T06:32:15.129Z,1028.97
2017-10-15T06:33:17.018Z,1028.98
2017-10-15T06:34:18.905Z,1028.97
2017-10-15T06:35:20.795Z,1028.98
2017-10-15T06:36:22.622Z,1029.02
2017-10-15T06:37:24.464Z,1029.01
2017-10-15T06:38:26.337Z,1029.02
2017-10-15T06:39:28.238Z,1029.00
2017-10-15T06:40:30.130Z,1029.11
2017-10-15T06:41:44.283Z,1029.09
2017-10-15T06:42:46.171Z,1029.09
2017-10-15T06:43:48.061Z,1029.07
2017-10-15T06:44:49.949Z,1029.08
2017-10-15T06:45:51.773Z,1029.06
2017-10-15T06:46:53.596Z,1029.08
2017-10-15T06:47:55.482Z,1029.05
2017-10-15T06:48:57.384Z,1029.06
2017-10-15T06:49:59.277Z,1029.05
2017-10-15T06:51:13.435Z,1029.05
2017-10-15T06:52:15.323Z,1029.03
2017-10-15T06:53:17.211Z,1029.04
2017-10-15T06:54:19.098Z,1029.03
2017-10-15T06:55:20.922Z,1029.02
2017-10-15T06:56:22.759Z,1029.01
2017-10-15T06:57:24.657Z,1029.05
2017-10-15T06:58:26.550Z,1029.07
2017-10-15T06:59:28.442Z,1029.03
2017-10-15T07:00:42.635Z,1029.04
2017-10-15T07:01:44.561Z,1029.05
2017-10-15T07:02:46.465Z,1029.06
2017-10-15T07:03:48.345Z,1029.07
2017-10-15T07:04:50.173Z,1029.05
2017-10-15T07:05:51.996Z,1029.04
2017-10-15T07:06:54.155Z,1029.10
2017-10-15T07:07:56.088Z,1029.09
2017-10-15T07:08:57.983Z,1029.10
2017-10-15T07:10:12.211Z,1029.08
2017-10-15T07:11:14.102Z,1029.08
2017-10-15T07:12:16.317Z,1029.09
2017-10-15T07:13:18.197Z,1029.11
2017-10-15T07:14:20.022Z,1029.08
2017-10-15T07:15:21.842Z,1029.13
2017-10-15T07:16:23.734Z,1029.12
2017-10-15T07:17:25.620Z,1029.07
2017-10-15T07:18:27.507Z,1029.13
2017-10-15T07:19:41.670Z,1029.10
2017-10-15T07:20:43.592Z,1029.10
2017-10-15T07:21:45.459Z,1029.13
2017-10-15T07:22:47.363Z,1029.13
2017-10-15T07:23:49.166Z,1029.10
2017-10-15T07:24:50.991Z,1029.09
2017-10-15T07:25:52.881Z,1029.11
2017-10-15T07:26:54.772Z,1029.14
2017-10-15T07:27:56.663Z,1029.12
2017-10-15T07:29:10.823Z,1029.13
2017-10-15T07:30:12.712Z,1029.18
2017-10-15T07:31:14.613Z,1029.15
2017-10-15T07:32:16.502Z,1029.18
2017-10-15T07:33:18.326Z,1029.22
2017-10-15T07:34:20.149Z,1029.22
2017-10-15T07:35:22.039Z,1029.24
2017-10-15T07:36:23.929Z,1029.25
2017-10-15T07:37:25.819Z,1029.22
2017-10-15T07:38:40.108Z,1029.23
2017-10-15T07:39:42.001Z,1029.24
2017-10-15T07:40:43.890Z,1029.22
2017-10-15T07:41:45.777Z,1029.27
2017-10-15T07:42:47.601Z,1029.25
2017-10-15T07:43:49.428Z,1029.28
2017-10-15T07:44:51.316Z,1029.26
2017-10-15T07:45:53.407Z,1029.27
2017-10-15T07:46:55.296Z,1029.26
2017-10-15T07:48:09.455Z,1029.27
2017-10-15T07:49:11.345Z,1029.30
2017-10-15T07:50:13.234Z,1029.29
2017-10-15T07:51:15.122Z,1029.28
2017-10-15T07:52:16.949Z,1029.31
2017-10-15T07:53:18.777Z,1029.27
2017-10-15T07:54:20.665Z,1029.26
2017-10-15T07:55:22.559Z,1029.26
2017-10-15T07:56:24.448Z,1029.25
2017-10-15T07:57:38.609Z,1029.24
2017-10-15T07:58:40.501Z,1029.28
2017-10-15T07:59:42.391Z,1029.27
2017-10-15T08:00:44.278Z,1029.27
2017-10-15T08:01:46.116Z,1029.27
2017-10-15T08:02:47.941Z,1029.24
2017-10-15T08:03:49.832Z,1029.24
2017-10-15T08:04:51.722Z,1029.25
2017-10-15T08:05:53.613Z,1029.24
2017-10-15T08:07:07.773Z,1029.24
2017-10-15T08:08:09.664Z,1029.24
2017-10-15T08:09:11.552Z,1029.28
2017-10-15T08:10:13.443Z,1029.25
2017-10-15T08:11:15.273Z,1029.26
2017-10-15T08:12:17.095Z,1029.23
2017-10-15T08:13:18.992Z,1029.24
2017-10-15T08:14:20.878Z,1029.24
2017-10-15T08:15:22.770Z,1029.24
2017-10-15T08:16:36.979Z,1029.26
2017-10-15T08:17:38.872Z,1029.25
2017-10-15T08:18:40.760Z,1029.26
2017-10-15T08:19:42.660Z,1029.24
2017-10-15T08:20:44.479Z,1029.26
2017-10-15T08:21:46.309Z,1029.23
2017-10-15T08:22:48.198Z,1029.23
2017-10-15T08:23:50.118Z,1029.20
2017-10-15T08:24:52.008Z,1029.21
2017-10-15T08:26:06.166Z,1029.23
2017-10-15T08:27:08.099Z,1029.21
2017-10-15T08:28:10.070Z,1029.20
2017-10-15T08:29:11.959Z,1029.23
2017-10-15T08:30:13.787Z,1029.22
2017-10-15T08:31:15.621Z,1029.20
2017-10-15T08:32:17.510Z,1029.22
2017-10-15T08:33:19.399Z,1029.24
2017-10-15T08:34:21.288Z,1029.24
2017-10-15T08:35:35.449Z,1029.22
2017-10-15T08:36:37.338Z,1029.18
2017-10-15T08:37:39.228Z,1029.23
2017-10-15T08:38:41.119Z,1029.24
2017-10-15T08:39:42.944Z,1029.25
2017-10-15T08:40:44.779Z,1029.26
2017-10-15T08:41:46.671Z,1029.26
2017-10-15T08:42:48.560Z,1029.25
2017-10-15T08:43:50.465Z,1029.28
2017-10-15T08:45:04.621Z,1029.29
2017-10-15T08:46:06.534Z,1029.23
2017-10-15T08:47:08.404Z,1029.27
2017-10-15T08:48:10.293Z,1029.27
2017-10-15T08:49:12.119Z,1029.24
2017-10-15T08:50:13.943Z,1029.27
2017-10-15T08:51:15.831Z,1029.27
2017-10-15T08:52:17.735Z,1029.29
2017-10-15T08:53:19.617Z,1029.27
2017-10-15T08:54:33.779Z,1029.27
2017-10-15T08:55:35.679Z,1029.30
2017-10-15T08:56:37.557Z,1029.30
2017-10-15T08:57:39.447Z,1029.27
2017-10-15T08:58:41.270Z,1029.30
2017-10-15T08:59:43.099Z,1029.27
2017-10-15T09:00:44.987Z,1029.29
2017-10-15T09:01:46.890Z,1029.29
2017-10-15T09:02:48.788Z,1029.27
2017-10-15T09:04:02.951Z,1029.29
2017-10-15T09:05:04.842Z,1029.27
2017-10-15T09:06:06.731Z,1029.29
2017-10-15T09:07:08.619Z,1029.24
2017-10-15T09:08:10.447Z,1029.24
2017-10-15T09:09:12.273Z,1029.28
2017-10-15T09:10:14.170Z,1029.26
2017-10-15T09:11:16.072Z,1029.23
2017-10-15T09:12:17.961Z,1029.22
2017-10-15T09:13:32.124Z,1029.23
2017-10-15T09:14:34.017Z,1029.22
2017-10-15T09:15:35.937Z,1029.24
2017-10-15T09:16:37.802Z,1029.25
2017-10-15T09:17:39.627Z,1029.24
2017-10-15T09:18:41.452Z,1029.22
2017-10-15T09:19:43.343Z,1029.25
2017-10-15T09:20:45.235Z,1029.22
2017-10-15T09:21:47.125Z,1029.18
2017-10-15T09:23:01.349Z,1029.21
2017-10-15T09:24:03.237Z,1029.20
2017-10-15T09:25:05.130Z,1029.15
2017-10-15T09:26:07.022Z,1029.17
2017-10-15T09:27:08.848Z,1029.15
2017-10-15T09:28:10.673Z,1029.16
2017-10-15T09:29:12.563Z,1029.17
2017-10-15T09:30:14.455Z,1029.17
2017-10-15T09:31:16.345Z,1029.12
2017-10-15T09:32:30.508Z,1029.09
2017-10-15T09:33:32.398Z,1029.11
2017-10-15T09:34:34.290Z,1029.13
2017-10-15T09:35:36.175Z,1029.11
2017-10-15T09:36:38.003Z,1029.07
2017-10-15T09:37:39.829Z,1029.06
2017-10-15T09:38:41.716Z,1029.03
2017-10-15T09:39:43.610Z,1029.04
2017-10-15T09:40:45.499Z,1028.98
2017-10-15T09:41:59.660Z,1029.01
2017-10-15T09:43:01.551Z,1028.99
2017-10-15T09:44:03.444Z,1029.02
2017-10-15T09:45:05.336Z,1028.94
2017-10-15T09:46:07.171Z,1028.94
2017-10-15T09:47:08.997Z,1028.94
2017-10-15T09:48:10.885Z,1028.92
2017-10-15T09:49:12.776Z,1028.94
2017-10-15T09:50:14.680Z,1028.94
2017-10-15T09:51:28.848Z,1028.93
2017-10-15T09:52:30.739Z,1028.95
2017-10-15T09:53:32.628Z,1028.93
2017-10-15T09:54:34.520Z,1028.91
2017-10-15T09:55:36.347Z,1028.94
2017-10-15T09:56:38.171Z,1028.93
2017-10-15T09:57:40.063Z,1028.87
2017-10-15T09:58:41.957Z,1028.92
2017-10-15T09:59:43.848Z,1028.90
2017-10-15T10:00:58.012Z,1028.92
2017-10-15T10:01:59.905Z,1028.90
2017-10-15T10:03:01.795Z,1028.89
2017-10-15T10:04:03.687Z,1028.90
2017-10-15T10:05:05.513Z,1028.89
2017-10-15T10:06:07.339Z,1028.92
2017-10-15T10:07:09.229Z,1028.92
2017-10-15T10:08:11.121Z,1028.93
2017-10-15T10:09:13.012Z,1028.94
2017-10-15T10:10:27.178Z,1028.94
2017-10-15T10:11:29.069Z,1028.94
2017-10-15T10:12:30.961Z,1028.93
2017-10-15T10:13:32.853Z,1028.95
2017-10-15T10:14:34.683Z,1028.96
2017-10-15T10:15:36.532Z,1028.94
2017-10-15T10:16:38.421Z,1028.96
2017-10-15T10:17:40.323Z,1028.93
2017-10-15T10:18:42.218Z,1028.94
2017-10-15T10:19:56.384Z,1028.91
2017-10-15T10:20:58.277Z,1028.91
2017-10-15T10:22:00.174Z,1028.90
2017-10-15T10:23:02.065Z,1028.90
2017-10-15T10:24:03.891Z,1028.89
2017-10-15T10:25:05.717Z,1028.86
2017-10-15T10:26:07.615Z,1028.85
2017-10-15T10:27:09.509Z,1028.82
2017-10-15T10:28:11.397Z,1028.82
2017-10-15T10:29:25.560Z,1028.82
2017-10-15T10:30:27.469Z,1028.78
2017-10-15T10:31:29.368Z,1028.77
2017-10-15T10:32:31.257Z,1028.82
2017-10-15T10:33:33.083Z,1028.80
2017-10-15T10:34:34.917Z,1028.76
2017-10-15T10:35:36.808Z,1028.76
2017-10-15T10:36:38.704Z,1028.81
2017-10-15T10:37:40.592Z,1028.78
2017-10-15T10:38:54.756Z,1028.79
2017-10-15T10:39:56.659Z,1028.76
2017-10-15T10:40:58.553Z,1028.79
2017-10-15T10:42:00.449Z,1028.78
2017-10-15T10:43:02.281Z,1028.75
2017-10-15T10:44:04.113Z,1028.74
2017-10-15T10:45:06.002Z,1028.77
2017-10-15T10:46:07.893Z,1028.77
2017-10-15T10:47:09.785Z,1028.70
2017-10-15T10:48:24.007Z,1028.74
2017-10-15T10:49:25.916Z,1028.74
2017-10-15T10:50:27.802Z,1028.74
2017-10-15T10:51:30.035Z,1028.68
2017-10-15T10:52:31.827Z,1028.68
2017-10-15T10:53:33.672Z,1028.65
2017-10-15T10:54:35.932Z,1028.65
2017-10-15T10:55:37.829Z,1028.65
2017-10-15T10:56:39.751Z,1028.65
2017-10-15T10:57:54.016Z,1028.64
2017-10-15T10:58:56.250Z,1028.62
2017-10-15T10:59:58.470Z,1028.64
2017-10-15T11:01:00.384Z,1028.61
2017-10-15T11:02:02.242Z,1028.65
2017-10-15T11:03:04.491Z,1028.61
2017-10-15T11:04:06.729Z,1028.62
2017-10-15T11:05:08.955Z,1028.60
2017-10-15T11:06:10.855Z,1028.59
2017-10-15T11:07:25.042Z,1028.54
2017-10-15T11:08:27.038Z,1028.57
2017-10-15T11:09:28.905Z,1028.59
2017-10-15T11:10:30.794Z,1028.54
2017-10-15T11:11:32.635Z,1028.56
2017-10-15T11:12:34.463Z,1028.56
2017-10-15T11:13:36.354Z,1028.56
2017-10-15T11:14:38.278Z,1028.58
2017-10-15T11:15:40.168Z,1028.53
2017-10-15T11:16:54.332Z,1028.52
2017-10-15T11:17:56.244Z,1028.54
2017-10-15T11:18:58.115Z,1028.55
2017-10-15T11:20:00.007Z,1028.53
2017-10-15T11:21:01.832Z,1028.54
2017-10-15T11:22:03.669Z,1028.54
2017-10-15T11:23:05.568Z,1028.48
2017-10-15T11:24:07.460Z,1028.45
2017-10-15T11:25:09.364Z,1028.45
2017-10-15T11:26:23.580Z,1028.47
2017-10-15T11:27:25.472Z,1028.44
2017-10-15T11:28:27.362Z,1028.41
2017-10-15T11:29:29.254Z,1028.43
2017-10-15T11:30:31.098Z,1028.40
2017-10-15T11:31:32.923Z,1028.40
2017-10-15T11:32:34.816Z,1028.42
2017-10-15T11:33:36.710Z,1028.41
2017-10-15T11:34:38.600Z,1028.39
2017-10-15T11:35:52.767Z,1028.38
2017-10-15T11:36:54.660Z,1028.33
2017-10-15T11:37:56.553Z,1028.35
2017-10-15T11:38:58.446Z,1028.32
2017-10-15T11:40:00.271Z,1028.31
2017-10-15T11:41:02.097Z,1028.29
2017-10-15T11:42:03.990Z,1028.28
2017-10-15T11:43:05.882Z,1028.27
2017-10-15T11:44:07.778Z,1028.31
2017-10-15T11:45:21.941Z,1028.28
2017-10-15T11:46:23.837Z,1028.29
2017-10-15T11:47:25.730Z,1028.27
2017-10-15T11:48:27.622Z,1028.28
2017-10-15T11:49:29.448Z,1028.27
2017-10-15T11:50:31.277Z,1028.25
2017-10-15T11:51:33.170Z,1028.25
2017-10-15T11:52:35.059Z,1028.24
2017-10-15T11:53:36.953Z,1028.24
2017-10-15T11:54:51.114Z,1028.22
2017-10-15T11:55:53.006Z,1028.21
2017-10-15T11:56:54.897Z,1028.22
2017-10-15T11:57:56.787Z,1028.20
2017-10-15T11:58:58.615Z,1028.18
2017-10-15T12:00:00.440Z,1028.22
2017-10-15T12:01:02.334Z,1028.19
2017-10-15T12:02:04.228Z,1028.17
2017-10-15T12:03:06.118Z,1028.19
2017-10-15T12:04:20.293Z,1028.15
2017-10-15T12:05:22.189Z,1028.19
2017-10-15T12:06:24.078Z,1028.19
2017-10-15T12:07:25.969Z,1028.11
2017-10-15T12:08:27.809Z,1028.14
2017-10-15T12:09:29.628Z,1028.16
2017-10-15T12:10:31.516Z,1028.12
2017-10-15T12:11:33.408Z,1028.11
2017-10-15T12:12:35.297Z,1028.07
2017-10-15T12:13:49.463Z,1028.06
2017-10-15T12:14:51.353Z,1028.08
2017-10-15T12:15:53.242Z,1028.05
2017-10-15T12:16:55.132Z,1028.06
2017-10-15T12:17:56.969Z,1028.06
2017-10-15T12:18:58.796Z,1028.07
2017-10-15T12:20:00.684Z,1028.06
2017-10-15T12:21:02.576Z,1028.03
2017-10-15T12:22:04.464Z,1028.08
2017-10-15T12:23:18.687Z,1028.03
2017-10-15T12:24:20.578Z,1028.02
2017-10-15T12:25:22.468Z,1028.04
2017-10-15T12:26:24.357Z,1027.98
2017-10-15T12:27:26.186Z,1028.03
2017-10-15T12:28:28.014Z,1028.02
2017-10-15T12:29:29.898Z,1027.98
2017-10-15T12:30:31.800Z,1028.00
2017-10-15T12:31:33.690Z,1027.97
2017-10-15T12:32:47.854Z,1027.95
2017-10-15T12:33:49.771Z,1027.91
2017-10-15T12:34:51.687Z,1027.92
2017-10-15T12:35:53.576Z,1027.93
2017-10-15T12:36:55.404Z,1027.93
2017-10-15T12:37:57.230Z,1027.91
2017-10-15T12:38:59.118Z,1027.91
2017-10-15T12:40:01.014Z,1027.90
2017-10-15T12:41:02.904Z,1027.89
2017-10-15T12:42:17.084Z,1027.86
2017-10-15T12:43:18.958Z,1027.86
2017-10-15T12:44:20.847Z,1027.83